Time;durP1;ratioP1;P1;durP2;ratioP2;P2;SDS_P1;SDS_P2;PMS_P1;PMS_P2;Temp;Humidity;BMP_temperature;BMP_pressure;BME280_temperature;BME280_humidity;BME280_pressure;Samples;Min_cycle;Max_cycle;Signal;HPM_P1;HPM_P2
2021/05/27 00:02:20;;;;;;;23.13;18.13;;;11.70;83.90;;;;;;5013958;28;20071;-83
2021/05/27 00:04:45;;;;;;;26.35;20.27;;;11.70;84.10;;;;;;5016098;28;20022;-84
2021/05/27 00:07:11;;;;;;;28.95;21.15;;;11.60;84.20;;;;;;5020766;28;20369;-84
2021/05/27 00:09:37;;;;;;;31.23;21.55;;;11.60;84.40;;;;;;5023216;28;20031;-82
2021/05/27 00:12:03;;;;;;;31.02;21.40;;;11.50;84.70;;;;;;5017882;28;20056;-84
2021/05/27 00:14:28;;;;;;;30.42;20.92;;;11.60;84.80;;;;;;5016648;28;20029;-84
2021/05/27 00:16:54;;;;;;;33.17;20.83;;;11.60;84.70;;;;;;5004792;28;20366;-84
2021/05/27 00:19:20;;;;;;;29.70;20.70;;;11.50;84.80;;;;;;5017386;28;20071;-84
2021/05/27 00:21:46;;;;;;;28.40;20.23;;;11.50;84.80;;;;;;5029594;28;20026;-84
2021/05/27 00:24:12;;;;;;;25.35;18.92;;;11.50;85.10;;;;;;5003044;28;20030;-83
2021/05/27 00:26:40;;;;;;;26.13;18.50;;;11.50;84.90;;;;;;5028227;28;20425;-83
2021/05/27 00:29:06;;;;;;;29.30;19.77;;;11.50;84.90;;;;;;5026448;28;20045;-83
2021/05/27 00:31:32;;;;;;;30.40;19.88;;;11.40;85.00;;;;;;5034327;28;20037;-83
2021/05/27 00:33:58;;;;;;;30.60;20.65;;;11.40;85.10;;;;;;5017789;28;20033;-84
2021/05/27 00:36:23;;;;;;;24.20;19.52;;;11.30;85.30;;;;;;5021814;28;20476;-84
2021/05/27 00:38:49;;;;;;;28.52;19.42;;;11.40;85.40;;;;;;5022307;28;20109;-85
2021/05/27 00:41:14;;;;;;;24.33;17.75;;;11.40;85.30;;;;;;5023000;28;20062;-85
2021/05/27 00:43:40;;;;;;;28.02;19.98;;;11.40;85.30;;;;;;5035801;28;20395;-82
2021/05/27 00:46:06;;;;;;;29.30;19.42;;;11.40;85.30;;;;;;5029732;28;20072;-84
2021/05/27 00:49:14;;;;;;;27.65;20.30;;;11.40;85.20;;;;;;5020111;28;20576;-84
2021/05/27 00:51:20;;;;;;;28.25;20.58;;;11.40;85.20;;;;;;5019154;28;22176;-84
2021/05/27 00:53:46;;;;;;;30.73;20.98;;;11.50;85.30;;;;;;5024054;28;20113;-83
2021/05/27 00:56:12;;;;;;;34.53;23.92;;;11.50;85.30;;;;;;5028111;28;20461;-84
2021/05/27 00:58:38;;;;;;;34.53;23.63;;;11.60;85.20;;;;;;5029345;28;20026;-84
2021/05/27 01:01:04;;;;;;;29.23;21.38;;;11.60;85.20;;;;;;5027908;28;20470;-84
2021/05/27 01:03:29;;;;;;;29.40;20.55;;;11.60;85.20;;;;;;5017899;28;20029;-84
2021/05/27 01:05:55;;;;;;;30.48;21.92;;;11.60;85.10;;;;;;5019964;28;20030;-83
2021/05/27 01:08:21;;;;;;;30.33;22.23;;;11.60;85.00;;;;;;5025804;28;20048;-84
2021/05/27 01:10:46;;;;;;;32.65;21.83;;;11.60;85.00;;;;;;5030218;28;20102;-84
2021/05/27 01:13:12;;;;;;;30.55;24.10;;;11.60;85.10;;;;;;5030991;28;20045;-84
2021/05/27 01:15:39;;;;;;;33.80;22.63;;;11.70;85.20;;;;;;5031686;28;20112;-84
2021/05/27 01:18:08;;;;;;;30.38;22.25;;;11.70;85.20;;;;;;5032093;28;20033;-83
2021/05/27 01:20:34;;;;;;;32.55;22.00;;;11.70;85.10;;;;;;5022655;28;20114;-84
2021/05/27 01:23:01;;;;;;;29.88;22.90;;;11.80;85.20;;;;;;5012514;28;20113;-83
2021/05/27 01:25:27;;;;;;;30.70;21.10;;;11.80;85.20;;;;;;5026958;28;20029;-83
2021/05/27 01:27:53;;;;;;;28.25;20.02;;;11.80;85.10;;;;;;5023573;28;20501;-83
2021/05/27 01:30:20;;;;;;;26.85;20.70;;;11.80;85.20;;;;;;5021080;28;20030;-84
2021/05/27 01:32:46;;;;;;;25.70;19.23;;;11.80;85.10;;;;;;5038260;28;20036;-83
2021/05/27 01:35:20;;;;;;;33.30;22.13;;;11.90;85.10;;;;;;5034344;28;20025;-85
2021/05/27 01:37:46;;;;;;;28.92;21.90;;;11.80;85.00;;;;;;5038047;28;20021;-83
2021/05/27 01:40:18;;;;;;;26.92;22.55;;;11.80;85.00;;;;;;5030002;28;20420;-84
2021/05/27 01:42:44;;;;;;;31.55;23.90;;;11.90;85.10;;;;;;5031286;28;20026;-83
2021/05/27 01:45:11;;;;;;;32.88;24.08;;;11.90;85.00;;;;;;5035593;28;20026;-85
2021/05/27 01:47:37;;;;;;;30.58;23.50;;;12.00;84.80;;;;;;5030512;28;20044;-83
2021/05/27 01:50:04;;;;;;;31.98;23.65;;;11.90;84.80;;;;;;5030312;28;20449;-83
2021/05/27 01:52:30;;;;;;;29.20;22.10;;;11.90;84.70;;;;;;5023393;28;20040;-84
2021/05/27 01:54:56;;;;;;;30.55;21.73;;;11.80;84.80;;;;;;5025564;28;20099;-83
2021/05/27 01:57:21;;;;;;;29.02;23.05;;;11.80;84.80;;;;;;5016383;28;20033;-86
2021/05/27 01:59:47;;;;;;;33.10;23.02;;;11.70;85.00;;;;;;5022309;28;20053;-84
2021/05/27 02:02:13;;;;;;;27.17;22.42;;;11.60;85.10;;;;;;5016276;28;21207;-83
2021/05/27 02:04:38;;;;;;;29.77;23.35;;;11.60;85.30;;;;;;5018126;28;20022;-84
2021/05/27 02:07:12;;;;;;;31.85;23.45;;;11.50;85.30;;;;;;5023549;28;20071;-83
2021/05/27 02:09:37;;;;;;;29.40;23.90;;;11.40;85.70;;;;;;5003858;28;20469;-83
2021/05/27 02:12:04;;;;;;;32.75;24.58;;;11.40;85.90;;;;;;5009863;28;20046;-83
2021/05/27 02:14:30;;;;;;;34.85;23.85;;;11.40;85.90;;;;;;5003328;28;20018;-84
2021/05/27 02:16:55;;;;;;;36.15;24.30;;;11.30;86.00;;;;;;5021948;28;20048;-81
2021/05/27 02:19:21;;;;;;;33.15;24.90;;;11.30;86.20;;;;;;5025005;28;20026;-83
2021/05/27 02:21:47;;;;;;;30.13;22.38;;;11.30;86.30;;;;;;5013113;28;20125;-84
2021/05/27 02:24:13;;;;;;;35.00;24.40;;;11.20;86.20;;;;;;5039645;28;20336;-84
2021/05/27 02:26:39;;;;;;;30.17;22.90;;;11.20;86.50;;;;;;5031452;28;20029;-83
2021/05/27 02:29:05;;;;;;;35.05;25.42;;;11.10;86.70;;;;;;5026329;28;20117;-84
2021/05/27 02:31:32;;;;;;;34.97;24.08;;;11.10;86.80;;;;;;5006266;28;20472;-87
2021/05/27 02:33:58;;;;;;;37.28;25.80;;;11.10;86.90;;;;;;5014430;28;20476;-84
2021/05/27 02:36:24;;;;;;;33.50;23.95;;;11.10;87.00;;;;;;5028605;28;20503;-83
2021/05/27 02:38:51;;;;;;;39.25;23.90;;;11.10;87.10;;;;;;5023065;28;20017;-84
2021/05/27 02:41:17;;;;;;;29.15;22.45;;;11.10;87.00;;;;;;5032896;28;20472;-84
2021/05/27 02:43:43;;;;;;;36.25;23.50;;;11.10;86.90;;;;;;5023113;28;20037;-83
2021/05/27 02:46:09;;;;;;;34.42;24.75;;;11.10;86.90;;;;;;5013054;28;20479;-84
2021/05/27 02:48:34;;;;;;;32.35;23.15;;;11.00;87.10;;;;;;5027509;28;20030;-83
2021/05/27 02:51:01;;;;;;;33.47;24.20;;;11.00;87.20;;;;;;5006725;28;20026;-83
2021/05/27 02:53:26;;;;;;;29.42;23.42;;;11.00;87.10;;;;;;5003132;28;20033;-83
2021/05/27 02:55:52;;;;;;;32.53;24.02;;;11.00;87.20;;;;;;5004486;28;20056;-87
2021/05/27 02:58:19;;;;;;;36.67;24.02;;;11.00;87.20;;;;;;5002910;28;20076;-83
2021/05/27 03:00:45;;;;;;;31.50;22.95;;;10.90;87.30;;;;;;5022869;28;20045;-84
2021/05/27 03:03:12;;;;;;;34.00;23.48;;;10.80;87.40;;;;;;5027435;28;20032;-83
2021/05/27 03:05:37;;;;;;;31.83;23.45;;;10.80;87.60;;;;;;5020207;28;20034;-83
2021/05/27 03:08:03;;;;;;;36.00;24.85;;;10.80;87.70;;;;;;5019845;28;20116;-81
2021/05/27 03:10:29;;;;;;;32.83;23.95;;;10.80;87.90;;;;;;5010934;28;20370;-83
2021/05/27 03:12:54;;;;;;;32.00;23.38;;;10.90;87.80;;;;;;5025803;28;20034;-83
2021/05/27 03:15:20;;;;;;;38.53;24.55;;;10.90;87.80;;;;;;5022458;28;20063;-84
2021/05/27 03:17:46;;;;;;;37.70;25.75;;;11.00;87.80;;;;;;5027078;28;20025;-84
2021/05/27 03:20:12;;;;;;;34.50;23.70;;;11.10;87.70;;;;;;5032031;28;20063;-83
2021/05/27 03:22:38;;;;;;;35.92;24.70;;;11.10;87.60;;;;;;5006993;28;20773;-83
2021/05/27 03:25:05;;;;;;;33.47;24.17;;;11.00;87.60;;;;;;4999119;28;20043;-85
2021/05/27 03:27:31;;;;;;;35.80;25.65;;;11.10;87.70;;;;;;5015982;28;20450;-84
2021/05/27 03:29:57;;;;;;;37.85;24.60;;;11.10;87.70;;;;;;5023367;28;20052;-84
2021/05/27 03:32:22;;;;;;;37.47;25.92;;;11.10;87.80;;;;;;5025667;28;20045;-84
2021/05/27 03:34:48;;;;;;;34.22;25.60;;;11.10;87.60;;;;;;5019381;28;20036;-84
2021/05/27 03:37:14;;;;;;;40.70;27.92;;;11.10;87.60;;;;;;5035087;28;20094;-83
2021/05/27 03:39:39;;;;;;;36.40;27.10;;;11.10;87.70;;;;;;5019841;28;20412;-83
2021/05/27 03:42:05;;;;;;;40.90;28.08;;;11.10;88.00;;;;;;5030063;28;20059;-83
2021/05/27 03:44:31;;;;;;;38.83;26.98;;;11.10;87.90;;;;;;5031622;28;20040;-84
2021/05/27 03:46:57;;;;;;;42.80;30.35;;;11.10;87.90;;;;;;5009170;28;20026;-83
2021/05/27 03:49:22;;;;;;;35.15;26.90;;;11.10;87.90;;;;;;5003792;28;20069;-83
2021/05/27 03:51:48;;;;;;;36.00;28.65;;;11.20;87.90;;;;;;5030249;28;20045;-84
2021/05/27 03:54:14;;;;;;;37.97;28.95;;;11.20;87.80;;;;;;5019356;28;20496;-83
2021/05/27 03:56:39;;;;;;;41.50;30.45;;;11.20;87.90;;;;;;5010581;28;20038;-84
2021/05/27 04:01:49;;;;;;;39.65;29.50;;;11.30;87.70;;;;;;5023861;28;20092;-84
2021/05/27 04:07:10;;;;;;;44.85;30.30;;;11.30;87.60;;;;;;5023636;28;20033;-85
2021/05/27 04:09:37;;;;;;;38.95;31.83;;;11.30;87.60;;;;;;5017629;28;20038;-84
2021/05/27 04:15:35;;;;;;;40.92;29.88;;;11.40;87.50;;;;;;5021414;28;20032;-83
2021/05/27 04:17:36;;;;;;;40.70;31.95;;;11.30;87.50;;;;;;5013752;28;20026;-84
2021/05/27 04:20:04;;;;;;;43.53;32.65;;;11.40;87.40;;;;;;5020955;28;20029;-84
2021/05/27 04:22:29;;;;;;;37.00;31.98;;;11.40;87.30;;;;;;5022838;28;20049;-84
2021/05/27 04:24:55;;;;;;;42.78;32.30;;;11.40;87.30;;;;;;5025054;28;20068;-84
2021/05/27 04:27:20;;;;;;;38.08;30.45;;;11.40;87.30;;;;;;5016279;28;20037;-85
2021/05/27 04:29:46;;;;;;;38.40;31.40;;;11.40;87.30;;;;;;5020536;28;20025;-84
2021/05/27 04:34:56;;;;;;;37.67;30.70;;;11.30;87.30;;;;;;4994996;28;20033;-84
2021/05/27 04:37:22;;;;;;;36.70;30.05;;;11.40;87.50;;;;;;4996716;28;20046;-85
2021/05/27 04:39:47;;;;;;;36.63;29.85;;;11.40;87.30;;;;;;5014988;28;20117;-84
2021/05/27 04:42:13;;;;;;;34.15;29.85;;;11.40;87.30;;;;;;5025851;28;20507;-83
2021/05/27 04:44:39;;;;;;;35.47;29.45;;;11.40;87.20;;;;;;5034610;28;20025;-87
2021/05/27 04:47:04;;;;;;;38.85;31.35;;;11.50;87.30;;;;;;5046639;28;20044;-88
2021/05/27 04:49:30;;;;;;;36.58;29.80;;;11.50;87.10;;;;;;5045084;28;20030;-86
2021/05/27 04:51:56;;;;;;;36.60;28.80;;;11.70;87.00;;;;;;5037085;28;20481;-86
2021/05/27 04:54:21;;;;;;;38.50;30.27;;;11.70;86.50;;;;;;5023588;28;20034;-84
2021/05/27 04:56:47;;;;;;;36.78;29.10;;;11.80;86.20;;;;;;5024726;28;20037;-83
2021/05/27 04:59:13;;;;;;;37.42;29.88;;;11.80;86.00;;;;;;5022993;28;20050;-84
2021/05/27 05:01:39;;;;;;;40.08;30.67;;;11.90;85.60;;;;;;4997464;28;20037;-84
2021/05/27 05:04:04;;;;;;;35.05;29.67;;;12.00;85.40;;;;;;4999621;28;20449;-84
2021/05/27 05:06:30;;;;;;;35.55;29.90;;;12.10;85.40;;;;;;4994500;28;20109;-85
2021/05/27 05:08:57;;;;;;;37.03;29.90;;;12.20;85.00;;;;;;4991884;28;20030;-88
2021/05/27 05:11:22;;;;;;;37.53;30.45;;;12.30;84.60;;;;;;4997483;28;20170;-84
2021/05/27 05:13:48;;;;;;;38.63;30.17;;;12.60;84.60;;;;;;5001177;28;20561;-86
2021/05/27 05:16:14;;;;;;;36.85;29.00;;;12.90;83.40;;;;;;5004181;28;20026;-87
2021/05/27 05:18:40;;;;;;;36.75;29.48;;;13.00;81.90;;;;;;4996691;28;20038;-84
2021/05/27 05:21:06;;;;;;;34.45;28.85;;;13.10;81.30;;;;;;5002463;28;20084;-83
2021/05/27 05:23:31;;;;;;;37.53;30.42;;;13.10;81.20;;;;;;5005432;28;20034;-84
2021/05/27 05:25:57;;;;;;;40.28;29.25;;;13.60;80.90;;;;;;5003354;28;20039;-84
2021/05/27 05:28:22;;;;;;;36.10;30.88;;;13.80;78.30;;;;;;5001919;28;20025;-86
2021/05/27 05:30:48;;;;;;;39.70;32.92;;;13.60;78.00;;;;;;5028864;28;20033;-83
2021/05/27 05:33:14;;;;;;;38.05;31.08;;;13.40;78.80;;;;;;5032849;28;20037;-73
2021/05/27 05:35:40;;;;;;;39.70;30.20;;;13.20;79.80;;;;;;4996240;28;20053;-74
2021/05/27 05:38:06;;;;;;;37.53;28.67;;;13.30;79.30;;;;;;5005200;28;20057;-76
2021/05/27 05:40:32;;;;;;;30.48;25.65;;;13.40;79.60;;;;;;5002527;28;20026;-74
2021/05/27 05:42:59;;;;;;;38.13;27.35;;;13.30;79.90;;;;;;5018422;28;20033;-74
2021/05/27 05:45:26;;;;;;;33.72;27.90;;;13.60;79.60;;;;;;5001341;28;20064;-74
2021/05/27 05:47:52;;;;;;;33.05;27.10;;;13.70;79.40;;;;;;5021678;28;20029;-77
2021/05/27 05:53:04;;;;;;;33.35;24.52;;;15.70;72.90;;;;;;5014326;28;20103;-74
2021/05/27 05:55:30;;;;;;;30.92;23.85;;;15.70;70.90;;;;;;5026455;28;20025;-73
2021/05/27 05:57:56;;;;;;;28.73;23.25;;;15.40;72.40;;;;;;5024283;28;20045;-76
2021/05/27 06:00:21;;;;;;;30.80;23.70;;;15.00;74.30;;;;;;5013859;28;20065;-74
2021/05/27 06:02:47;;;;;;;32.88;25.35;;;14.80;74.60;;;;;;5021015;28;20030;-73
2021/05/27 06:05:13;;;;;;;28.75;23.67;;;14.30;76.50;;;;;;5021374;28;20051;-74
2021/05/27 06:07:38;;;;;;;28.88;23.35;;;14.00;77.30;;;;;;5014032;28;20100;-76
2021/05/27 06:10:04;;;;;;;30.83;24.17;;;13.90;77.60;;;;;;5013776;28;20048;-74
2021/05/27 06:12:30;;;;;;;27.88;23.63;;;14.10;77.80;;;;;;5011179;28;20041;-76
2021/05/27 06:14:56;;;;;;;31.67;25.60;;;14.10;77.90;;;;;;5027421;28;20034;-74
2021/05/27 06:17:21;;;;;;;30.50;26.08;;;14.20;77.50;;;;;;5023236;28;20124;-77
2021/05/27 06:19:47;;;;;;;29.08;24.70;;;14.50;78.00;;;;;;5020037;28;20121;-74
2021/05/27 06:22:12;;;;;;;32.00;24.50;;;14.50;77.40;;;;;;5004982;28;20050;-74
2021/05/27 06:24:38;;;;;;;29.13;23.88;;;14.60;77.40;;;;;;5017642;28;20026;-73
2021/05/27 06:27:04;;;;;;;23.60;21.20;;;14.60;76.40;;;;;;5020859;28;20036;-76
2021/05/27 06:29:30;;;;;;;23.98;20.55;;;14.70;76.10;;;;;;5018736;28;20034;-74
2021/05/27 06:31:55;;;;;;;26.25;20.73;;;14.80;76.10;;;;;;5014159;28;20421;-74
2021/05/27 06:34:21;;;;;;;28.23;21.38;;;14.50;76.30;;;;;;5006254;28;20030;-73
2021/05/27 06:36:47;;;;;;;26.30;20.83;;;14.10;77.60;;;;;;5010789;28;20539;-74
2021/05/27 06:39:12;;;;;;;24.63;21.88;;;14.00;78.30;;;;;;5015223;28;20469;-74
2021/05/27 06:41:38;;;;;;;22.70;20.30;;;13.90;78.60;;;;;;5025151;28;20371;-74
2021/05/27 06:44:03;;;;;;;23.25;20.75;;;13.90;78.80;;;;;;5018212;28;20541;-76
2021/05/27 06:46:29;;;;;;;23.35;20.25;;;13.80;78.70;;;;;;5017701;28;20033;-73
2021/05/27 06:48:56;;;;;;;25.40;20.73;;;13.60;79.10;;;;;;5020865;28;20032;-73
2021/05/27 06:51:22;;;;;;;23.23;20.60;;;13.70;79.30;;;;;;5009111;28;20034;-73
2021/05/27 06:53:47;;;;;;;23.45;20.90;;;13.80;78.90;;;;;;5018526;28;20080;-75
2021/05/27 06:56:13;;;;;;;24.17;19.58;;;13.70;78.70;;;;;;5024377;28;20754;-72
2021/05/27 06:58:39;;;;;;;24.33;21.13;;;13.70;79.00;;;;;;5026994;28;20407;-72
2021/05/27 07:01:05;;;;;;;23.30;20.40;;;13.90;78.50;;;;;;5026954;28;20060;-72
2021/05/27 07:03:31;;;;;;;24.48;20.10;;;13.80;78.40;;;;;;5031114;28;20068;-74
2021/05/27 07:05:59;;;;;;;27.15;20.15;;;14.00;78.50;;;;;;5026703;28;20432;-74
2021/05/27 07:08:24;;;;;;;23.80;20.75;;;14.20;77.60;;;;;;5028194;28;20025;-73
2021/05/27 07:10:50;;;;;;;23.45;20.60;;;14.40;77.40;;;;;;5027158;28;20032;-72
2021/05/27 07:13:16;;;;;;;22.95;20.10;;;14.60;76.40;;;;;;5031786;28;20090;-73
2021/05/27 07:15:41;;;;;;;27.52;21.40;;;14.60;75.30;;;;;;5032696;28;20501;-72
2021/05/27 07:18:07;;;;;;;25.55;20.85;;;14.50;76.10;;;;;;5024832;28;20436;-72
2021/05/27 07:20:34;;;;;;;23.25;19.75;;;14.40;75.90;;;;;;4998572;28;20516;-73
2021/05/27 07:23:00;;;;;;;23.08;20.45;;;14.40;76.40;;;;;;4992265;28;20038;-73
2021/05/27 07:25:26;;;;;;;27.35;20.10;;;14.60;75.80;;;;;;5004884;28;20037;-75
2021/05/27 07:27:53;;;;;;;26.75;21.17;;;14.80;75.50;;;;;;4999008;28;20070;-73
2021/05/27 07:30:21;;;;;;;24.58;21.58;;;15.00;74.80;;;;;;5012487;28;20113;-74
2021/05/27 07:32:47;;;;;;;23.38;20.90;;;14.80;74.40;;;;;;5009941;28;20065;-74
2021/05/27 07:35:13;;;;;;;23.88;21.33;;;14.70;75.80;;;;;;5022573;28;20076;-74
2021/05/27 07:37:39;;;;;;;22.58;19.63;;;15.20;74.80;;;;;;5006676;28;20386;-72
2021/05/27 07:40:06;;;;;;;22.08;19.52;;;15.60;73.20;;;;;;5017894;28;20038;-72
2021/05/27 07:42:33;;;;;;;25.45;20.27;;;15.90;72.80;;;;;;5022962;28;20037;-72
2021/05/27 07:44:59;;;;;;;27.30;20.17;;;15.80;72.50;;;;;;5011962;28;20404;-72
2021/05/27 07:47:25;;;;;;;27.02;22.05;;;15.50;72.90;;;;;;5002452;28;20102;-74
2021/05/27 07:49:51;;;;;;;23.40;20.52;;;15.10;74.10;;;;;;5016363;28;20460;-73
2021/05/27 07:52:17;;;;;;;24.17;21.23;;;15.00;74.60;;;;;;5021276;28;20068;-73
2021/05/27 07:54:43;;;;;;;23.98;20.52;;;14.90;74.10;;;;;;4991241;28;20038;-77
2021/05/27 07:57:09;;;;;;;22.27;18.63;;;14.60;75.00;;;;;;5018722;28;20604;-74
2021/05/27 07:59:35;;;;;;;23.42;20.83;;;14.70;74.00;;;;;;5015393;28;20041;-73
2021/05/27 08:02:01;;;;;;;23.38;19.17;;;14.80;73.80;;;;;;5018733;28;20040;-75
2021/05/27 08:04:26;;;;;;;25.75;20.23;;;15.00;74.30;;;;;;5019041;28;20447;-72
2021/05/27 08:06:52;;;;;;;20.00;17.88;;;15.00;72.80;;;;;;5017842;28;20048;-74
2021/05/27 08:09:18;;;;;;;20.48;18.20;;;14.90;72.90;;;;;;5016691;28;20033;-73
2021/05/27 08:11:44;;;;;;;21.92;19.05;;;14.80;72.70;;;;;;5020378;28;20033;-73
2021/05/27 08:14:11;;;;;;;22.15;19.13;;;14.70;73.30;;;;;;5020349;28;20491;-73
2021/05/27 08:16:37;;;;;;;23.05;19.90;;;14.80;73.00;;;;;;5000902;28;20049;-72
2021/05/27 08:19:03;;;;;;;24.25;18.73;;;14.90;72.80;;;;;;5019796;28;20036;-74
2021/05/27 08:21:30;;;;;;;21.27;18.65;;;15.00;73.20;;;;;;5007345;28;20091;-73
2021/05/27 08:23:56;;;;;;;21.40;19.10;;;15.30;72.10;;;;;;5014223;28;20184;-73
2021/05/27 08:26:23;;;;;;;20.33;18.20;;;15.20;72.00;;;;;;5017511;28;20056;-73
2021/05/27 08:28:48;;;;;;;22.42;18.35;;;15.30;72.00;;;;;;5024275;28;20030;-74
2021/05/27 08:31:14;;;;;;;20.02;18.02;;;15.40;71.30;;;;;;4995784;28;20393;-74
2021/05/27 08:33:40;;;;;;;20.48;18.05;;;15.60;71.50;;;;;;4990199;28;20481;-74
2021/05/27 08:36:07;;;;;;;20.95;17.98;;;15.70;70.30;;;;;;4991685;28;20137;-72
2021/05/27 08:38:33;;;;;;;19.63;16.27;;;15.80;70.30;;;;;;5007553;28;20037;-72
2021/05/27 08:40:58;;;;;;;19.27;16.65;;;15.60;69.90;;;;;;5013193;28;20084;-76
2021/05/27 08:43:26;;;;;;;19.33;17.33;;;15.50;70.40;;;;;;5015909;28;20034;-74
2021/05/27 08:45:53;;;;;;;21.55;18.05;;;15.40;70.80;;;;;;4989206;28;20026;-75
2021/05/27 08:48:19;;;;;;;19.60;17.55;;;15.50;70.70;;;;;;4997152;28;20038;-72
2021/05/27 08:50:47;;;;;;;17.88;15.95;;;15.70;70.20;;;;;;5002302;28;20042;-71
2021/05/27 08:53:15;;;;;;;18.08;14.15;;;15.80;69.50;;;;;;5000119;28;20041;-74
2021/05/27 08:55:42;;;;;;;16.35;14.23;;;16.10;68.00;;;;;;5000915;28;20034;-74
2021/05/27 08:58:08;;;;;;;15.05;12.45;;;16.50;66.90;;;;;;5011205;28;20034;-73
2021/05/27 09:00:35;;;;;;;17.60;12.15;;;16.60;65.20;;;;;;5019662;28;20121;-74
2021/05/27 09:03:02;;;;;;;14.73;11.75;;;16.60;64.90;;;;;;5023726;28;20034;-75
2021/05/27 09:05:36;;;;;;;14.43;11.02;;;16.40;64.90;;;;;;5028235;28;20029;-73
2021/05/27 09:08:04;;;;;;;14.15;11.40;;;16.10;65.80;;;;;;5022484;28;20033;-73
2021/05/27 09:10:42;;;;;;;12.85;10.98;;;15.90;66.90;;;;;;5028294;28;20064;-73
2021/05/27 09:13:18;;;;;;;16.23;10.90;;;16.00;67.20;;;;;;5031010;28;20070;-72
2021/05/27 09:15:45;;;;;;;15.88;11.55;;;16.20;67.40;;;;;;5022053;28;20112;-73
2021/05/27 09:18:11;;;;;;;12.50;10.68;;;16.30;67.40;;;;;;5026146;28;20025;-73
2021/05/27 09:20:38;;;;;;;14.27;11.10;;;16.40;66.70;;;;;;5030075;28;20036;-75
2021/05/27 09:23:17;;;;;;;13.35;10.65;;;16.70;66.40;;;;;;5040882;28;20041;-73
2021/05/27 09:25:46;;;;;;;12.32;9.23;;;16.90;64.40;;;;;;5016618;28;20034;-72
2021/05/27 09:28:19;;;;;;;14.02;10.40;;;16.70;65.20;;;;;;5027781;28;20479;-72
2021/05/27 09:30:51;;;;;;;14.05;10.63;;;16.60;65.60;;;;;;5027283;28;20447;-73
2021/05/27 09:33:17;;;;;;;14.70;11.05;;;16.40;65.80;;;;;;5030450;28;20080;-72
2021/05/27 09:35:43;;;;;;;11.13;9.18;;;16.40;66.40;;;;;;5028486;28;20056;-74
2021/05/27 09:38:10;;;;;;;13.60;9.43;;;16.60;64.70;;;;;;5033424;28;20032;-72
2021/05/27 09:40:44;;;;;;;11.73;9.38;;;16.90;64.10;;;;;;5025305;28;20037;-73
2021/05/27 09:43:11;;;;;;;13.05;8.93;;;16.80;63.50;;;;;;5029277;28;20049;-73
2021/05/27 09:45:38;;;;;;;16.33;11.20;;;17.00;64.80;;;;;;5029820;28;20115;-72
2021/05/27 09:48:26;;;;;;;14.32;9.80;;;17.00;63.90;;;;;;5036072;28;20025;-73
2021/05/27 09:50:56;;;;;;;12.73;8.93;;;17.00;65.00;;;;;;5012507;28;20061;-73
2021/05/27 09:53:27;;;;;;;12.93;8.70;;;17.10;64.10;;;;;;5025167;28;20045;-73
2021/05/27 09:55:54;;;;;;;12.40;9.27;;;17.20;64.00;;;;;;5029565;28;20528;-73
2021/05/27 09:58:21;;;;;;;15.10;10.48;;;17.30;63.60;;;;;;5025798;28;20108;-72
2021/05/27 10:00:49;;;;;;;14.38;10.27;;;16.80;64.30;;;;;;5033344;28;20060;-74
2021/05/27 10:03:26;;;;;;;14.52;10.98;;;16.80;64.70;;;;;;5028394;28;20037;-73
2021/05/27 10:05:53;;;;;;;15.40;10.82;;;16.90;65.00;;;;;;5024608;28;20045;-72
2021/05/27 10:08:22;;;;;;;16.35;11.18;;;17.10;62.90;;;;;;5030362;28;20116;-73
2021/05/27 10:10:51;;;;;;;13.48;11.02;;;17.10;64.20;;;;;;5031446;28;20040;-74
2021/05/27 10:13:23;;;;;;;14.57;9.93;;;17.10;63.70;;;;;;5021827;28;20030;-73
2021/05/27 10:15:49;;;;;;;12.63;9.80;;;17.00;63.30;;;;;;5024882;28;20120;-72
2021/05/27 10:18:16;;;;;;;14.80;11.13;;;16.90;62.60;;;;;;5027842;28;20107;-72
2021/05/27 10:20:42;;;;;;;13.20;10.18;;;17.00;64.00;;;;;;5021491;28;20052;-71
2021/05/27 10:23:08;;;;;;;13.27;10.52;;;17.10;64.20;;;;;;5013553;28;20053;-72
2021/05/27 10:25:34;;;;;;;12.95;8.93;;;17.00;63.70;;;;;;5020001;28;20021;-72
2021/05/27 10:28:04;;;;;;;12.90;9.57;;;16.70;62.40;;;;;;5020207;28;20029;-72
2021/05/27 10:30:37;;;;;;;12.60;11.10;;;16.60;64.00;;;;;;5015939;28;20508;-70
2021/05/27 10:33:05;;;;;;;14.90;11.13;;;16.30;64.90;;;;;;5015098;28;20052;-71
2021/05/27 10:36:10;;;;;;;16.58;13.13;;;16.10;67.00;;;;;;5030200;28;20087;-71
2021/05/27 10:38:39;;;;;;;16.63;13.05;;;15.90;67.80;;;;;;5006353;28;20168;-71
2021/05/27 10:41:10;;;;;;;17.40;15.10;;;15.70;68.90;;;;;;5016676;28;20480;-71
2021/05/27 10:43:36;;;;;;;20.95;17.80;;;15.90;69.10;;;;;;5021304;28;20029;-73
2021/05/27 10:46:07;;;;;;;22.17;18.33;;;15.70;68.60;;;;;;5015965;28;20371;-71
2021/05/27 10:48:42;;;;;;;22.05;19.33;;;15.60;68.90;;;;;;5022853;28;20029;-71
2021/05/27 10:53:40;;;;;;;22.13;18.52;;;16.10;67.80;;;;;;5020017;28;20029;-71
2021/05/27 10:56:15;;;;;;;21.60;17.85;;;16.20;67.60;;;;;;5019539;28;20060;-74
2021/05/27 10:58:52;;;;;;;;;;;16.30;67.10;;;;;;5019634;28;20126;-75
2021/05/27 11:01:30;;;;;;;19.50;16.45;;;16.70;67.80;;;;;;5020919;28;19913;-71
2021/05/27 11:03:56;;;;;;;21.70;16.98;;;16.60;66.10;;;;;;5018615;28;20178;-72
2021/05/27 11:06:33;;;;;;;20.88;17.10;;;16.90;66.30;;;;;;5016062;28;20040;-71
2021/05/27 11:09:10;;;;;;;22.45;16.75;;;16.70;67.40;;;;;;5016850;28;20071;-72
2021/05/27 11:11:48;;;;;;;19.85;15.30;;;17.20;65.40;;;;;;4999734;28;20129;-71
2021/05/27 11:14:20;;;;;;;17.35;14.73;;;17.30;64.80;;;;;;5002369;28;20072;-71
2021/05/27 11:17:04;;;;;;;18.92;16.50;;;17.10;64.10;;;;;;5009127;28;20036;-73
2021/05/27 11:20:04;;;;;;;18.35;16.40;;;16.90;65.10;;;;;;5019926;28;20034;-72
2021/05/27 11:25:11;;;;;;;17.55;15.07;;;17.50;64.00;;;;;;5018590;28;20038;-74
2021/05/27 11:27:51;;;;;;;16.73;13.10;;;17.70;63.70;;;;;;5020833;28;20120;-72
2021/05/27 11:30:30;;;;;;;17.65;14.43;;;17.50;62.60;;;;;;5019132;28;20388;-73
2021/05/27 11:33:32;;;;;;;15.25;13.65;;;17.60;62.90;;;;;;5023835;28;20111;-73
2021/05/27 11:36:01;;;;;;;16.23;13.40;;;17.60;62.60;;;;;;5022005;28;20026;-73
2021/05/27 11:38:28;;;;;;;15.48;13.20;;;17.60;62.80;;;;;;4998374;28;20393;-72
2021/05/27 11:41:00;;;;;;;12.68;10.98;;;17.60;62.50;;;;;;5006701;28;20037;-73
2021/05/27 11:43:35;;;;;;;14.10;10.60;;;17.70;59.20;;;;;;5009643;28;20100;-73
2021/05/27 11:46:06;;;;;;;15.25;12.52;;;17.20;61.00;;;;;;4999911;28;20527;-74
2021/05/27 11:48:42;;;;;;;16.10;12.23;;;17.10;63.10;;;;;;5006215;28;20442;-72
2021/05/27 11:51:19;;;;;;;15.60;12.05;;;16.90;64.20;;;;;;4997022;28;20408;-73
2021/05/27 11:54:00;;;;;;;15.23;12.20;;;16.60;65.00;;;;;;5029077;28;20461;-74
2021/05/27 11:56:29;;;;;;;14.77;11.77;;;16.30;64.30;;;;;;5022247;28;20034;-72
2021/05/27 11:58:55;;;;;;;14.48;11.30;;;16.60;65.90;;;;;;5004991;28;20064;-71
2021/05/27 12:01:26;;;;;;;16.75;11.15;;;17.10;64.80;;;;;;5020655;28;20041;-72
2021/05/27 12:03:59;;;;;;;11.55;10.32;;;17.40;62.10;;;;;;5019308;28;20037;-71
2021/05/27 12:06:26;;;;;;;13.65;10.00;;;17.00;62.20;;;;;;5013239;28;20027;-72
2021/05/27 12:08:51;;;;;;;14.20;10.95;;;17.50;62.20;;;;;;5004874;28;20037;-71
2021/05/27 12:11:31;;;;;;;12.88;10.18;;;17.10;61.10;;;;;;5001518;28;20030;-73
2021/05/27 12:14:02;;;;;;;14.63;12.50;;;16.80;62.20;;;;;;5021895;28;20026;-72
2021/05/27 12:16:35;;;;;;;12.82;10.82;;;16.50;63.90;;;;;;5027620;28;20033;-73
2021/05/27 12:19:05;;;;;;;14.02;10.63;;;16.50;63.20;;;;;;5021455;28;20061;-72
2021/05/27 12:21:32;;;;;;;13.48;10.40;;;16.60;62.50;;;;;;5003903;28;20045;-75
2021/05/27 12:23:58;;;;;;;13.10;10.13;;;16.90;62.80;;;;;;5002164;28;20524;-72
2021/05/27 12:26:24;;;;;;;12.88;9.95;;;17.30;61.80;;;;;;4997088;28;20513;-74
2021/05/27 12:28:50;;;;;;;12.02;9.75;;;17.10;60.80;;;;;;5000312;28;20038;-72
2021/05/27 12:31:16;;;;;;;14.50;10.73;;;17.00;61.30;;;;;;5001132;28;20486;-73
2021/05/27 12:33:42;;;;;;;12.60;10.57;;;17.00;63.80;;;;;;5003197;28;20570;-74
2021/05/27 12:36:11;;;;;;;13.63;11.43;;;17.00;62.30;;;;;;5007043;28;20078;-74
2021/05/27 12:38:48;;;;;;;17.75;11.65;;;16.70;61.90;;;;;;5005114;28;20039;-72
2021/05/27 12:41:15;;;;;;;13.85;10.18;;;16.70;63.30;;;;;;5005197;28;20037;-73
2021/05/27 12:43:52;;;;;;;12.65;10.10;;;17.10;62.50;;;;;;5010491;28;20033;-72
2021/05/27 12:46:33;;;;;;;13.15;9.65;;;17.20;60.70;;;;;;5010195;28;20057;-72
2021/05/27 12:49:01;;;;;;;12.35;10.02;;;17.20;60.70;;;;;;5015403;28;20423;-73
2021/05/27 12:51:37;;;;;;;14.13;9.50;;;17.20;60.50;;;;;;5016727;28;20041;-73